createdAt,value
2023-03-29T00:00:34.383Z,101329.19
2023-03-29T00:03:04.347Z,101317.47
2023-03-29T00:05:36.212Z,101339.72
2023-03-29T00:08:04.843Z,101321.66
2023-03-29T00:10:33.825Z,101337.44
2023-03-29T00:13:03.138Z,101325.94
2023-03-29T00:15:31.405Z,101325.63
2023-03-29T00:17:59.435Z,101324.16
2023-03-29T00:20:28.960Z,101326.88
2023-03-29T00:22:57.606Z,101306.94
2023-03-29T00:25:25.696Z,101323.66
2023-03-29T00:27:53.579Z,101325.00
2023-03-29T00:30:21.967Z,101302.50
2023-03-29T00:32:49.959Z,101311.34
2023-03-29T00:35:18.121Z,101300.34
2023-03-29T00:37:47.335Z,101294.25
2023-03-29T00:40:15.661Z,101285.28
2023-03-29T00:42:47.121Z,101302.13
2023-03-29T00:45:25.640Z,101294.06
2023-03-29T00:48:00.224Z,101272.88
2023-03-29T00:50:34.534Z,101282.09
2023-03-29T00:53:07.598Z,101285.91
2023-03-29T00:55:43.046Z,101270.94
2023-03-29T00:58:14.486Z,101282.88
2023-03-29T01:00:52.364Z,101275.97
2023-03-29T01:03:27.633Z,101274.59
2023-03-29T01:06:05.463Z,101278.88
2023-03-29T01:08:47.592Z,101225.47
2023-03-29T01:11:24.948Z,101273.47
2023-03-29T01:14:05.903Z,101293.22
2023-03-29T01:16:38.488Z,101287.53
2023-03-29T01:19:11.241Z,101289.50
2023-03-29T01:21:52.117Z,101281.16
2023-03-29T01:24:42.085Z,101263.87
2023-03-29T01:27:19.240Z,101282.62
2023-03-29T01:29:57.404Z,101282.09
2023-03-29T01:32:35.449Z,101286.53
2023-03-29T01:35:03.341Z,101286.62
2023-03-29T01:37:43.853Z,101295.28
2023-03-29T01:40:12.381Z,101270.00
2023-03-29T01:43:09.716Z,101288.38
2023-03-29T01:45:50.743Z,101301.94
2023-03-29T01:48:40.875Z,101297.22
2023-03-29T01:51:14.799Z,101301.59
2023-03-29T01:53:57.101Z,101294.69
2023-03-29T01:56:28.350Z,101286.62
2023-03-29T01:59:01.915Z,101286.91
2023-03-29T02:01:38.453Z,101292.03
2023-03-29T02:04:13.383Z,101277.78
2023-03-29T02:06:42.982Z,101274.28
2023-03-29T02:09:12.808Z,101285.22
2023-03-29T02:11:42.686Z,101266.47
2023-03-29T02:14:10.890Z,101280.47
2023-03-29T02:16:39.833Z,101277.97
2023-03-29T02:19:09.970Z,101259.75
2023-03-29T02:22:02.062Z,101285.22
2023-03-29T02:24:32.890Z,101289.47
2023-03-29T02:27:01.419Z,101287.72
2023-03-29T02:29:29.610Z,101288.47
2023-03-29T02:32:02.184Z,101275.75
2023-03-29T02:34:39.073Z,101267.31
2023-03-29T02:37:13.112Z,101281.50
2023-03-29T02:39:42.189Z,101284.59
2023-03-29T02:42:11.142Z,101285.31
2023-03-29T02:44:42.049Z,101297.94
2023-03-29T02:47:21.035Z,101298.63
2023-03-29T02:49:49.072Z,101289.50
2023-03-29T02:52:22.900Z,101301.94
2023-03-29T02:54:54.508Z,101296.94
2023-03-29T02:57:26.789Z,101314.41
2023-03-29T02:59:57.135Z,101325.31
2023-03-29T03:02:28.379Z,101334.28
2023-03-29T03:04:56.690Z,101329.09
2023-03-29T03:07:25.077Z,101332.91
2023-03-29T03:09:53.403Z,101342.41
2023-03-29T03:12:21.659Z,101345.19
2023-03-29T03:14:49.978Z,101319.53
2023-03-29T03:17:19.002Z,101297.38
2023-03-29T03:19:47.496Z,101335.44
2023-03-29T03:22:15.685Z,101335.13
2023-03-29T03:24:44.011Z,101310.03
2023-03-29T03:27:12.574Z,101329.19
2023-03-29T03:29:41.663Z,101329.47
2023-03-29T03:32:12.499Z,101320.09
2023-03-29T03:34:42.701Z,101329.44
2023-03-29T03:37:12.256Z,101289.28
2023-03-29T03:39:40.332Z,101324.97
2023-03-29T03:42:08.666Z,101322.91
2023-03-29T03:44:39.670Z,101326.06
2023-03-29T03:47:08.004Z,101327.44
2023-03-29T03:49:36.853Z,101329.94
2023-03-29T03:52:05.367Z,101336.44
2023-03-29T03:54:34.728Z,101336.16
2023-03-29T03:57:05.020Z,101332.72
2023-03-29T03:59:34.210Z,101336.91
2023-03-29T04:02:02.243Z,101324.31
2023-03-29T04:04:31.094Z,101335.50
2023-03-29T04:07:02.932Z,101336.50
2023-03-29T04:09:33.519Z,101330.06
2023-03-29T04:12:03.491Z,101333.88
2023-03-29T04:14:32.334Z,101328.50
2023-03-29T04:17:01.513Z,101325.28
2023-03-29T04:19:31.544Z,101334.44
2023-03-29T04:21:59.749Z,101320.16
2023-03-29T04:24:27.753Z,101337.44
2023-03-29T04:26:59.215Z,101347.88
2023-03-29T04:29:27.495Z,101355.44
2023-03-29T04:31:56.612Z,101360.34
2023-03-29T04:34:25.374Z,101363.59
2023-03-29T04:36:54.247Z,101334.69
2023-03-29T04:39:23.159Z,101372.53
2023-03-29T04:41:51.358Z,101363.03
2023-03-29T04:44:20.075Z,101357.00
2023-03-29T04:46:48.179Z,101357.00
2023-03-29T04:49:17.222Z,101354.41
2023-03-29T04:51:46.596Z,101341.66
2023-03-29T04:54:16.114Z,101367.03
2023-03-29T04:56:44.893Z,101359.50
2023-03-29T04:59:14.212Z,101354.75
2023-03-29T05:01:43.562Z,101347.69
2023-03-29T05:04:12.905Z,101327.56
2023-03-29T05:06:42.122Z,101343.09
2023-03-29T05:09:10.729Z,101338.66
2023-03-29T05:11:39.110Z,101327.22
2023-03-29T05:14:09.377Z,101334.44
2023-03-29T05:16:38.315Z,101335.28
2023-03-29T05:19:06.740Z,101325.53
2023-03-29T05:21:37.164Z,101321.72
2023-03-29T05:24:07.055Z,101338.41
2023-03-29T05:26:38.730Z,101344.12
2023-03-29T05:29:09.100Z,101338.78
2023-03-29T05:31:38.082Z,101335.28
2023-03-29T05:34:07.305Z,101260.94
2023-03-29T05:36:35.866Z,101307.47
2023-03-29T05:39:05.047Z,101332.31
2023-03-29T05:41:33.904Z,101325.03
2023-03-29T05:44:03.072Z,101326.28
2023-03-29T05:46:31.842Z,101326.97
2023-03-29T05:49:01.742Z,101313.62
2023-03-29T05:51:35.754Z,101324.44
2023-03-29T05:54:04.420Z,101328.72
2023-03-29T05:56:32.301Z,101334.03
2023-03-29T05:59:03.737Z,101335.56
2023-03-29T06:01:32.518Z,101322.91
2023-03-29T06:04:01.893Z,101332.06
2023-03-29T06:06:41.814Z,101324.91
2023-03-29T06:09:10.731Z,101328.50
2023-03-29T06:11:40.941Z,101309.34
2023-03-29T06:14:13.881Z,101322.41
2023-03-29T06:16:43.431Z,101337.56
2023-03-29T06:19:11.839Z,101339.22
2023-03-29T06:21:41.665Z,101278.47
2023-03-29T06:24:10.913Z,101346.63
2023-03-29T06:26:39.506Z,101291.72
2023-03-29T06:29:08.606Z,101316.06
2023-03-29T06:31:41.124Z,101361.97
2023-03-29T06:34:09.606Z,101343.09
2023-03-29T06:36:39.097Z,101317.50
2023-03-29T06:39:08.782Z,101353.44
2023-03-29T06:41:37.384Z,101344.97
2023-03-29T06:44:11.821Z,101369.13
2023-03-29T06:46:40.136Z,101331.59
2023-03-29T06:49:08.402Z,101239.88
2023-03-29T06:51:37.646Z,101370.72
2023-03-29T06:54:05.922Z,101359.00
2023-03-29T06:56:34.832Z,101373.00
2023-03-29T06:59:03.588Z,101381.47
2023-03-29T07:01:33.259Z,101386.28
2023-03-29T07:04:13.086Z,101384.88
2023-03-29T07:06:48.614Z,101380.56
2023-03-29T07:09:19.661Z,101395.03
2023-03-29T07:11:50.927Z,101390.13
2023-03-29T07:14:19.791Z,101381.44
2023-03-29T07:16:50.096Z,101379.72
2023-03-29T07:19:19.973Z,101378.72
2023-03-29T07:21:53.544Z,101362.59
2023-03-29T07:24:22.647Z,101374.44
2023-03-29T07:27:03.326Z,101361.09
2023-03-29T07:29:33.331Z,101382.44
2023-03-29T07:32:02.529Z,101375.47
2023-03-29T07:34:33.392Z,101382.06
2023-03-29T07:37:01.762Z,101386.19
2023-03-29T07:39:31.120Z,101368.47
2023-03-29T07:42:13.673Z,101391.38
2023-03-29T07:44:42.005Z,101380.97
2023-03-29T07:47:12.101Z,101391.62
2023-03-29T07:49:42.412Z,101387.62
2023-03-29T07:52:14.756Z,101391.62
2023-03-29T07:54:53.764Z,101289.44
2023-03-29T07:57:27.988Z,101384.16
2023-03-29T07:59:58.154Z,101391.50
2023-03-29T08:02:29.960Z,101386.13
2023-03-29T08:05:00.650Z,101345.06
2023-03-29T08:07:31.804Z,101382.03
2023-03-29T08:10:01.609Z,101383.19
2023-03-29T08:12:30.722Z,101379.78
2023-03-29T08:14:58.980Z,101384.31
2023-03-29T08:17:28.071Z,101373.63
2023-03-29T08:19:56.641Z,101332.44
2023-03-29T08:22:25.725Z,101377.78
2023-03-29T08:24:56.642Z,101384.06
2023-03-29T08:27:25.226Z,101372.63
2023-03-29T08:29:58.409Z,101359.06
2023-03-29T08:32:27.924Z,101384.31
2023-03-29T08:34:55.903Z,101326.97
2023-03-29T08:37:25.978Z,101357.00
2023-03-29T08:39:56.535Z,101364.03
2023-03-29T08:42:55.771Z,101367.09
2023-03-29T08:45:50.464Z,101371.63
2023-03-29T08:48:21.728Z,101359.22
2023-03-29T08:50:54.286Z,101347.59
2023-03-29T08:53:47.828Z,101350.25
2023-03-29T08:56:33.548Z,101348.16
2023-03-29T08:59:12.739Z,101339.25
2023-03-29T09:01:42.209Z,101309.59
2023-03-29T09:04:19.162Z,101341.41
2023-03-29T09:06:47.814Z,101332.88
2023-03-29T09:09:23.933Z,101322.97
2023-03-29T09:11:59.135Z,101326.28
2023-03-29T09:14:48.841Z,101323.31
2023-03-29T09:17:42.994Z,101319.59
2023-03-29T09:20:53.850Z,101319.72
2023-03-29T09:23:52.561Z,101309.38
2023-03-29T09:26:42.389Z,101313.28
2023-03-29T09:29:23.858Z,101307.25
2023-03-29T09:31:54.932Z,101312.00
2023-03-29T09:34:31.912Z,101292.31
2023-03-29T09:37:01.254Z,101293.22
2023-03-29T09:39:29.775Z,101299.56
2023-03-29T09:42:09.344Z,101301.97
2023-03-29T09:44:54.406Z,101304.91
2023-03-29T09:47:31.058Z,101304.47
2023-03-29T09:50:23.098Z,101274.44
2023-03-29T09:52:56.003Z,101296.31
2023-03-29T09:55:29.636Z,101290.03
2023-03-29T09:58:01.494Z,101285.41
2023-03-29T10:00:31.074Z,101278.28
2023-03-29T10:03:00.558Z,101244.19
2023-03-29T10:05:33.457Z,101260.81
2023-03-29T10:08:20.113Z,101276.00
2023-03-29T10:10:48.929Z,101278.06
2023-03-29T10:13:29.368Z,101212.13
2023-03-29T10:16:25.007Z,101257.69
2023-03-29T10:18:54.856Z,101267.84
2023-03-29T10:21:39.002Z,101241.31
2023-03-29T10:24:10.812Z,101256.53
2023-03-29T10:26:39.185Z,101216.13
2023-03-29T10:29:08.416Z,101250.78
2023-03-29T10:31:41.772Z,101230.88
2023-03-29T10:34:15.349Z,101229.56
2023-03-29T10:36:50.468Z,101218.47
2023-03-29T10:39:34.548Z,101255.56
2023-03-29T10:42:04.368Z,101250.34
2023-03-29T10:44:36.383Z,101239.25
2023-03-29T10:47:14.814Z,101243.84
2023-03-29T10:49:47.684Z,101203.47
2023-03-29T10:52:17.485Z,101212.22
2023-03-29T10:54:47.385Z,101213.78
2023-03-29T10:57:38.820Z,101207.03
2023-03-29T11:00:27.439Z,101181.22
2023-03-29T11:03:17.026Z,101221.25
2023-03-29T11:05:58.961Z,101215.25
2023-03-29T11:08:32.167Z,101171.03
2023-03-29T11:11:09.793Z,101208.28
2023-03-29T11:14:03.321Z,101190.47
2023-03-29T11:17:18.511Z,101211.91
2023-03-29T11:19:49.065Z,101166.38
2023-03-29T11:22:31.597Z,101205.66
2023-03-29T11:25:05.388Z,101182.34
2023-03-29T11:27:46.220Z,101192.44
2023-03-29T11:30:48.471Z,101174.84
2023-03-29T11:33:50.372Z,101190.22
2023-03-29T11:36:39.104Z,101170.75
2023-03-29T11:39:16.380Z,101185.25
2023-03-29T11:41:48.936Z,101167.91
2023-03-29T11:44:29.966Z,101160.84
2023-03-29T11:47:07.918Z,101105.72
2023-03-29T11:49:43.586Z,101158.00
2023-03-29T11:52:17.859Z,101162.22
2023-03-29T11:54:49.915Z,101151.78
2023-03-29T11:57:37.247Z,101147.25
2023-03-29T12:00:33.281Z,101150.44
2023-03-29T12:03:23.646Z,101148.84
2023-03-29T12:06:05.122Z,101139.94
2023-03-29T12:08:38.682Z,101145.16
2023-03-29T12:11:23.001Z,101093.78
2023-03-29T12:14:08.326Z,101136.78
2023-03-29T12:16:52.060Z,101138.81
2023-03-29T12:19:43.181Z,101132.97
2023-03-29T12:22:12.443Z,101130.91
2023-03-29T12:24:44.367Z,101133.44
2023-03-29T12:27:48.409Z,101123.25
2023-03-29T12:30:22.466Z,101123.06
2023-03-29T12:33:25.921Z,101118.81
2023-03-29T12:36:17.655Z,101117.34
2023-03-29T12:38:52.536Z,101113.09
2023-03-29T12:41:24.663Z,101106.47
2023-03-29T12:43:53.455Z,101109.41
2023-03-29T12:46:26.881Z,101095.94
2023-03-29T12:48:59.961Z,101098.00
2023-03-29T12:51:41.977Z,101099.84
2023-03-29T12:54:17.686Z,101103.81
2023-03-29T12:56:52.876Z,101096.56
2023-03-29T12:59:43.148Z,101095.28
2023-03-29T13:02:14.474Z,101090.78
2023-03-29T13:04:42.563Z,101090.19
2023-03-29T13:07:22.842Z,101084.94
2023-03-29T13:10:30.037Z,101091.72
2023-03-29T13:13:12.509Z,101085.56
2023-03-29T13:15:43.631Z,101071.22
2023-03-29T13:18:20.542Z,101074.09
2023-03-29T13:21:21.269Z,101078.25
2023-03-29T13:24:03.149Z,101077.09
2023-03-29T13:26:46.529Z,101071.44
2023-03-29T13:29:57.914Z,101047.47
2023-03-29T13:32:46.431Z,101068.13
2023-03-29T13:35:18.361Z,101059.38
2023-03-29T13:38:20.696Z,101055.41
2023-03-29T13:40:52.072Z,101046.59
2023-03-29T13:43:20.527Z,101044.34
2023-03-29T13:45:57.337Z,101047.47
2023-03-29T13:48:37.671Z,101046.87
2023-03-29T13:51:41.155Z,101047.31
2023-03-29T13:54:30.838Z,101041.94
2023-03-29T13:57:16.660Z,101037.09
2023-03-29T13:59:49.533Z,101033.06
2023-03-29T14:02:42.711Z,101042.03
2023-03-29T14:05:19.584Z,101039.94
2023-03-29T14:07:53.576Z,101045.62
2023-03-29T14:10:27.470Z,101049.56
2023-03-29T14:12:56.986Z,101050.94
2023-03-29T14:15:38.223Z,101026.50
2023-03-29T14:18:07.008Z,100998.06
2023-03-29T14:20:35.324Z,101041.59
2023-03-29T14:23:13.339Z,101026.22
2023-03-29T14:25:43.288Z,101032.09
2023-03-29T14:28:28.615Z,101032.94
2023-03-29T14:30:57.453Z,101030.63
2023-03-29T14:33:29.433Z,101025.97
2023-03-29T14:36:01.158Z,101040.28
2023-03-29T14:38:31.563Z,101040.09
2023-03-29T14:41:01.318Z,100997.88
2023-03-29T14:43:32.217Z,101039.53
2023-03-29T14:46:04.713Z,101028.03
2023-03-29T14:48:35.021Z,101030.88
2023-03-29T14:51:04.091Z,101033.50
2023-03-29T14:53:34.514Z,101029.16
2023-03-29T14:56:03.513Z,101007.03
2023-03-29T14:58:34.514Z,101023.06
2023-03-29T15:01:10.730Z,101027.34
2023-03-29T15:03:49.871Z,101026.97
2023-03-29T15:06:18.602Z,101026.91
2023-03-29T15:08:58.043Z,101017.59
2023-03-29T15:11:34.209Z,101024.50
2023-03-29T15:14:04.506Z,101006.91
2023-03-29T15:16:33.581Z,101023.44
2023-03-29T15:19:02.365Z,101018.97
2023-03-29T15:21:34.485Z,101015.81
2023-03-29T15:24:04.722Z,101007.41
2023-03-29T15:26:36.056Z,101016.19
2023-03-29T15:29:23.344Z,101015.50
2023-03-29T15:31:57.086Z,101009.87
2023-03-29T15:34:27.835Z,101019.03
2023-03-29T15:36:59.934Z,101011.06
2023-03-29T15:39:29.527Z,101009.22
2023-03-29T15:41:58.335Z,101000.97
2023-03-29T15:44:32.863Z,101001.16
2023-03-29T15:47:01.219Z,101005.94
2023-03-29T15:49:29.224Z,101002.31
2023-03-29T15:51:57.263Z,100987.41
2023-03-29T15:54:25.532Z,100997.84
2023-03-29T15:56:57.226Z,100995.34
2023-03-29T15:59:25.978Z,100993.37
2023-03-29T16:01:54.775Z,100984.94
2023-03-29T16:04:23.159Z,100979.81
2023-03-29T16:06:53.159Z,100948.38
2023-03-29T16:09:22.487Z,100993.53
2023-03-29T16:11:50.785Z,100978.47
2023-03-29T16:14:25.368Z,100988.06
2023-03-29T16:16:55.690Z,100948.87
2023-03-29T16:19:25.128Z,100987.25
2023-03-29T16:21:54.227Z,100982.63
2023-03-29T16:24:25.183Z,100986.41
2023-03-29T16:26:55.852Z,100980.66
2023-03-29T16:29:25.425Z,100984.75
2023-03-29T16:31:54.474Z,100984.78
2023-03-29T16:34:23.142Z,100983.25
2023-03-29T16:36:51.275Z,100978.28
2023-03-29T16:39:19.758Z,100978.81
2023-03-29T16:41:50.319Z,100977.62
2023-03-29T16:44:23.769Z,100981.59
2023-03-29T16:46:57.614Z,100981.44
2023-03-29T16:49:25.542Z,100981.75
2023-03-29T16:51:54.492Z,100972.66
2023-03-29T16:54:25.805Z,100973.66
2023-03-29T16:56:54.192Z,100981.44
2023-03-29T16:59:22.454Z,100979.59
2023-03-29T17:01:50.884Z,100988.38
2023-03-29T17:04:19.273Z,100960.72
2023-03-29T17:06:47.599Z,100987.00
2023-03-29T17:09:17.737Z,100984.72
2023-03-29T17:11:46.437Z,100988.03
2023-03-29T17:14:14.392Z,100987.00
2023-03-29T17:16:42.232Z,100957.75
2023-03-29T17:19:10.770Z,100989.00
2023-03-29T17:21:38.700Z,100974.25
2023-03-29T17:24:07.068Z,100990.63
2023-03-29T17:26:35.829Z,100949.97
2023-03-29T17:29:04.584Z,100968.50
2023-03-29T17:31:34.908Z,100976.88
2023-03-29T17:34:03.582Z,100987.78
2023-03-29T17:36:33.820Z,100991.09
2023-03-29T17:39:02.915Z,100986.97
2023-03-29T17:41:31.494Z,100985.63
2023-03-29T17:43:59.884Z,100954.97
2023-03-29T17:46:27.970Z,100991.00
2023-03-29T17:48:56.305Z,100989.84
2023-03-29T17:51:24.712Z,101003.37
2023-03-29T17:53:54.896Z,100988.81
2023-03-29T17:56:23.840Z,101001.06
2023-03-29T17:58:52.115Z,101005.66
2023-03-29T18:01:21.072Z,101008.28
2023-03-29T18:03:49.609Z,100959.94
2023-03-29T18:06:20.404Z,100988.38
2023-03-29T18:08:48.413Z,101001.31
2023-03-29T18:11:27.484Z,101006.06
2023-03-29T18:13:59.322Z,100991.97
2023-03-29T18:16:28.560Z,101006.50
2023-03-29T18:18:56.674Z,101005.16
2023-03-29T18:21:26.189Z,101000.41
2023-03-29T18:23:56.664Z,100969.72
2023-03-29T18:26:25.281Z,101005.34
2023-03-29T18:28:54.345Z,101001.44
2023-03-29T18:31:23.197Z,100974.88
2023-03-29T18:33:51.214Z,100983.09
2023-03-29T18:36:19.267Z,101008.16
2023-03-29T18:38:47.891Z,100989.09
2023-03-29T18:41:16.255Z,101009.25
2023-03-29T18:43:46.915Z,101006.97
2023-03-29T18:46:15.959Z,101003.81
2023-03-29T18:48:54.582Z,100998.53
2023-03-29T18:52:08.746Z,100998.69
2023-03-29T18:55:10.723Z,101000.00
2023-03-29T18:57:38.811Z,100998.84
2023-03-29T19:00:11.955Z,100992.94
2023-03-29T19:02:40.672Z,100990.28
2023-03-29T19:05:09.598Z,100965.94
2023-03-29T19:07:38.118Z,100987.28
2023-03-29T19:10:08.243Z,100998.12
2023-03-29T19:12:37.287Z,100986.09
2023-03-29T19:15:09.632Z,100992.84
2023-03-29T19:17:38.672Z,100990.72
2023-03-29T19:20:10.226Z,100991.50
2023-03-29T19:22:40.250Z,100994.81
2023-03-29T19:25:10.123Z,100992.91
2023-03-29T19:27:38.492Z,100980.44
2023-03-29T19:30:07.385Z,100985.97
2023-03-29T19:32:35.655Z,100961.06
2023-03-29T19:35:04.487Z,100963.41
2023-03-29T19:37:32.282Z,100965.72
2023-03-29T19:40:00.592Z,100978.88
2023-03-29T19:42:29.448Z,100959.00
2023-03-29T19:44:57.632Z,100930.19
2023-03-29T19:47:25.771Z,100988.78
2023-03-29T19:49:54.255Z,100980.84
2023-03-29T19:52:24.100Z,100994.22
2023-03-29T19:54:52.600Z,100986.97
2023-03-29T19:57:22.708Z,100991.84
2023-03-29T19:59:53.159Z,100992.31
2023-03-29T20:02:21.793Z,100961.75
2023-03-29T20:04:49.946Z,100972.53
2023-03-29T20:07:17.782Z,100978.38
2023-03-29T20:09:46.092Z,100975.75
2023-03-29T20:12:14.279Z,100985.94
2023-03-29T20:14:43.421Z,100975.44
2023-03-29T20:17:11.406Z,100961.16
2023-03-29T20:19:44.128Z,100971.63
2023-03-29T20:22:12.413Z,100968.59
2023-03-29T20:24:40.749Z,100954.28
2023-03-29T20:27:08.813Z,100952.69
2023-03-29T20:29:37.492Z,100969.13
2023-03-29T20:32:06.242Z,100944.56
2023-03-29T20:34:34.150Z,100965.87
2023-03-29T20:37:02.175Z,100959.63
2023-03-29T20:39:31.527Z,100921.16
2023-03-29T20:42:00.649Z,100942.44
2023-03-29T20:44:28.607Z,100923.84
2023-03-29T20:47:03.512Z,100950.88
2023-03-29T20:49:37.189Z,100950.91
2023-03-29T20:52:18.245Z,100965.50
2023-03-29T20:54:46.149Z,100971.19
2023-03-29T20:57:16.723Z,100966.81
2023-03-29T20:59:45.862Z,100961.12
2023-03-29T21:02:20.953Z,100945.53
2023-03-29T21:04:53.450Z,100960.75
2023-03-29T21:07:21.854Z,100968.69
2023-03-29T21:09:50.474Z,100964.78
2023-03-29T21:12:20.337Z,100971.78
2023-03-29T21:14:48.579Z,100927.06
2023-03-29T21:17:16.493Z,100973.16
2023-03-29T21:19:44.342Z,100965.53
2023-03-29T21:22:15.934Z,100971.75
2023-03-29T21:24:43.775Z,100945.50
2023-03-29T21:27:11.733Z,100951.78
2023-03-29T21:29:40.177Z,100971.12
2023-03-29T21:32:08.186Z,100963.88
2023-03-29T21:34:35.967Z,100943.25
2023-03-29T21:37:04.168Z,100943.25
2023-03-29T21:39:32.357Z,100966.38
2023-03-29T21:42:00.476Z,100960.41
2023-03-29T21:44:28.842Z,100961.12
2023-03-29T21:46:56.780Z,100958.53
2023-03-29T21:49:24.650Z,100961.41
2023-03-29T21:51:52.803Z,100952.37
2023-03-29T21:54:20.897Z,100904.78
2023-03-29T21:56:48.740Z,100947.84
2023-03-29T21:59:16.904Z,100942.28
2023-03-29T22:01:44.909Z,100959.53
2023-03-29T22:04:17.686Z,100935.50
2023-03-29T22:06:54.091Z,100945.28
2023-03-29T22:09:22.170Z,100934.06
2023-03-29T22:11:50.275Z,100957.56
2023-03-29T22:14:19.488Z,100936.47
2023-03-29T22:16:47.806Z,100951.78
2023-03-29T22:19:15.735Z,100946.56
2023-03-29T22:21:44.289Z,100946.19
2023-03-29T22:24:12.416Z,100942.97
2023-03-29T22:26:41.152Z,100945.72
2023-03-29T22:29:09.014Z,100928.13
2023-03-29T22:31:37.975Z,100943.03
2023-03-29T22:34:06.258Z,100939.41
2023-03-29T22:36:36.198Z,100925.94
2023-03-29T22:39:05.903Z,100932.53
2023-03-29T22:41:33.943Z,100938.13
2023-03-29T22:44:01.793Z,100944.59
2023-03-29T22:46:30.439Z,100943.47
2023-03-29T22:48:58.390Z,100937.81
2023-03-29T22:51:26.394Z,100922.53
2023-03-29T22:53:54.672Z,100917.34
2023-03-29T22:56:23.273Z,100891.69
2023-03-29T22:58:51.207Z,100936.25
2023-03-29T23:01:19.347Z,100935.19
2023-03-29T23:03:47.335Z,100928.41
2023-03-29T23:06:15.209Z,100926.03
2023-03-29T23:08:43.799Z,100900.78
2023-03-29T23:11:11.687Z,100915.22
2023-03-29T23:13:39.835Z,100922.09
2023-03-29T23:16:08.117Z,100906.09
2023-03-29T23:18:37.730Z,100926.13
2023-03-29T23:21:08.993Z,100923.09
2023-03-29T23:23:37.707Z,100919.31
2023-03-29T23:26:06.618Z,100912.94
2023-03-29T23:28:35.256Z,100917.88
2023-03-29T23:31:11.821Z,100899.41
2023-03-29T23:33:41.761Z,100930.75
2023-03-29T23:36:15.669Z,100930.44
2023-03-29T23:38:45.666Z,100931.28
2023-03-29T23:41:14.210Z,100917.56
2023-03-29T23:43:43.909Z,100885.88
2023-03-29T23:46:15.433Z,100898.16
2023-03-29T23:48:49.147Z,100905.06
2023-03-29T23:51:23.014Z,100918.53
2023-03-29T23:53:51.894Z,100887.25
2023-03-29T23:56:21.752Z,100901.69
2023-03-29T23:58:50.178Z,100903.81
